createdAt,value
2023-03-29T00:00:31.329Z,0.52
2023-03-29T00:01:35.689Z,0.52
2023-03-29T00:02:32.389Z,0.52
2023-03-29T00:03:31.372Z,0.52
2023-03-29T00:04:31.411Z,0.52
2023-03-29T00:05:31.307Z,0.52
2023-03-29T00:06:31.298Z,0.53
2023-03-29T00:07:31.306Z,0.51
2023-03-29T00:08:31.316Z,0.52
2023-03-29T00:09:31.272Z,0.52
2023-03-29T00:10:31.278Z,0.51
2023-03-29T00:11:31.263Z,0.52
2023-03-29T00:12:31.252Z,0.51
2023-03-29T00:13:31.246Z,0.52
2023-03-29T00:14:31.290Z,0.52
2023-03-29T00:15:31.330Z,0.50
2023-03-29T00:16:31.266Z,0.51
2023-03-29T00:17:31.256Z,0.51
2023-03-29T00:18:31.204Z,0.52
2023-03-29T00:19:31.228Z,0.52
2023-03-29T00:20:31.191Z,0.53
2023-03-29T00:21:31.190Z,0.52
2023-03-29T00:22:31.211Z,0.52
2023-03-29T00:23:31.215Z,0.52
2023-03-29T00:24:31.229Z,0.52
2023-03-29T00:25:31.236Z,0.51
2023-03-29T00:26:31.258Z,0.51
2023-03-29T00:27:31.230Z,0.52
2023-03-29T00:28:31.264Z,0.51
2023-03-29T00:29:31.294Z,0.51
2023-03-29T00:30:31.261Z,0.52
2023-03-29T00:31:31.319Z,0.51
2023-03-29T00:32:31.361Z,0.51
2023-03-29T00:33:31.308Z,0.52
2023-03-29T00:34:31.313Z,0.51
2023-03-29T00:35:31.372Z,0.52
2023-03-29T00:36:31.341Z,0.51
2023-03-29T00:37:31.344Z,0.51
2023-03-29T00:38:31.370Z,0.52
2023-03-29T00:39:31.407Z,0.51
2023-03-29T00:40:31.393Z,0.52
2023-03-29T00:41:31.419Z,0.52
2023-03-29T00:42:31.462Z,0.52
2023-03-29T00:43:31.454Z,0.52
2023-03-29T00:44:31.452Z,0.51
2023-03-29T00:45:31.466Z,0.51
2023-03-29T00:46:31.568Z,0.52
2023-03-29T00:47:31.522Z,0.52
2023-03-29T00:48:31.527Z,0.52
2023-03-29T00:49:31.531Z,0.52
2023-03-29T00:50:31.546Z,0.53
2023-03-29T00:51:31.554Z,0.51
2023-03-29T00:52:31.574Z,0.51
2023-03-29T00:53:31.614Z,0.52
2023-03-29T00:54:31.593Z,0.53
2023-03-29T00:55:31.627Z,0.52
2023-03-29T00:56:31.637Z,0.52
2023-03-29T00:57:31.731Z,0.52
2023-03-29T00:58:31.650Z,0.52
2023-03-29T00:59:31.704Z,0.51
2023-03-29T01:00:31.757Z,0.52
2023-03-29T01:01:31.711Z,0.51
2023-03-29T01:02:31.767Z,0.52
2023-03-29T01:03:31.779Z,0.52
2023-03-29T01:04:31.717Z,0.52
2023-03-29T01:05:31.738Z,0.52
2023-03-29T01:06:31.781Z,0.52
2023-03-29T01:07:31.767Z,0.51
2023-03-29T01:08:31.821Z,0.52
2023-03-29T01:09:31.762Z,0.51
2023-03-29T01:10:31.778Z,0.52
2023-03-29T01:11:31.817Z,0.53
2023-03-29T01:12:31.841Z,0.52
2023-03-29T01:13:31.836Z,0.52
2023-03-29T01:14:31.836Z,0.51
2023-03-29T01:15:31.893Z,0.51
2023-03-29T01:16:31.896Z,0.51
2023-03-29T01:17:31.966Z,0.52
2023-03-29T01:18:31.871Z,0.51
2023-03-29T01:19:31.907Z,0.53
2023-03-29T01:20:31.896Z,0.52
2023-03-29T01:21:31.910Z,0.51
2023-03-29T01:22:31.947Z,0.52
2023-03-29T01:23:31.976Z,0.53
2023-03-29T01:24:31.981Z,0.52
2023-03-29T01:25:31.985Z,0.53
2023-03-29T01:26:31.990Z,0.52
2023-03-29T01:27:32.017Z,0.52
2023-03-29T01:28:32.035Z,0.52
2023-03-29T01:29:32.032Z,0.52
2023-03-29T01:30:32.041Z,0.52
2023-03-29T01:31:32.109Z,0.53
2023-03-29T01:32:32.119Z,0.52
2023-03-29T01:33:32.100Z,0.52
2023-03-29T01:34:32.107Z,0.51
2023-03-29T01:35:32.144Z,0.52
2023-03-29T01:36:32.124Z,0.52
2023-03-29T01:37:32.148Z,0.52
2023-03-29T01:38:32.139Z,0.52
2023-03-29T01:39:32.161Z,0.52
2023-03-29T01:40:32.256Z,0.52
2023-03-29T01:41:32.188Z,0.52
2023-03-29T01:42:32.212Z,0.52
2023-03-29T01:43:32.206Z,0.51
2023-03-29T01:44:32.216Z,0.51
2023-03-29T01:45:32.249Z,0.51
2023-03-29T01:46:32.346Z,0.51
2023-03-29T01:47:32.370Z,0.52
2023-03-29T01:48:32.311Z,0.51
2023-03-29T01:49:32.325Z,0.51
2023-03-29T01:50:32.368Z,0.52
2023-03-29T01:51:32.368Z,0.52
2023-03-29T01:52:32.388Z,0.52
2023-03-29T01:53:32.436Z,0.52
2023-03-29T01:54:32.428Z,0.52
2023-03-29T01:55:32.425Z,0.52
2023-03-29T01:56:32.463Z,0.51
2023-03-29T01:57:32.522Z,0.52
2023-03-29T01:58:32.530Z,0.52
2023-03-29T01:59:32.521Z,0.52
2023-03-29T02:00:32.546Z,0.50
2023-03-29T02:01:32.717Z,0.53
2023-03-29T02:02:32.642Z,0.52
2023-03-29T02:03:32.669Z,0.53
2023-03-29T02:04:32.650Z,0.52
2023-03-29T02:05:32.650Z,0.52
2023-03-29T02:06:32.676Z,0.53
2023-03-29T02:07:32.697Z,0.52
2023-03-29T02:08:32.731Z,0.52
2023-03-29T02:09:32.763Z,0.52
2023-03-29T02:10:32.778Z,0.52
2023-03-29T02:11:32.771Z,0.52
2023-03-29T02:12:32.753Z,0.52
2023-03-29T02:13:32.826Z,0.52
2023-03-29T02:14:32.844Z,0.52
2023-03-29T02:15:32.867Z,0.52
2023-03-29T02:16:32.868Z,0.51
2023-03-29T02:17:32.926Z,0.52
2023-03-29T02:18:32.925Z,0.51
2023-03-29T02:19:32.949Z,0.52
2023-03-29T02:20:33.009Z,0.52
2023-03-29T02:21:32.990Z,0.51
2023-03-29T02:22:32.996Z,0.52
2023-03-29T02:23:33.018Z,0.52
2023-03-29T02:24:33.053Z,0.52
2023-03-29T02:25:33.081Z,0.52
2023-03-29T02:26:33.094Z,0.52
2023-03-29T02:27:33.086Z,0.51
2023-03-29T02:28:33.141Z,0.52
2023-03-29T02:29:33.151Z,0.52
2023-03-29T02:30:33.176Z,0.52
2023-03-29T02:31:33.272Z,0.51
2023-03-29T02:32:33.242Z,0.52
2023-03-29T02:33:33.258Z,0.51
2023-03-29T02:34:33.287Z,0.51
2023-03-29T02:35:33.369Z,0.51
2023-03-29T02:36:33.354Z,0.52
2023-03-29T02:37:33.364Z,0.51
2023-03-29T02:38:33.364Z,0.51
2023-03-29T02:39:33.396Z,0.51
2023-03-29T02:40:33.432Z,0.51
2023-03-29T02:41:33.435Z,0.51
2023-03-29T02:42:33.474Z,0.51
2023-03-29T02:43:33.475Z,0.50
2023-03-29T02:44:33.506Z,0.51
2023-03-29T02:45:33.532Z,0.51
2023-03-29T02:46:33.546Z,0.51
2023-03-29T02:47:33.611Z,0.51
2023-03-29T02:48:33.594Z,0.52
2023-03-29T02:49:33.602Z,0.51
2023-03-29T02:50:33.637Z,0.51
2023-03-29T02:51:33.664Z,0.52
2023-03-29T02:52:33.691Z,0.52
2023-03-29T02:53:33.694Z,0.51
2023-03-29T02:54:33.747Z,0.51
2023-03-29T02:55:33.747Z,0.51
2023-03-29T02:56:33.808Z,0.51
2023-03-29T02:57:33.811Z,0.51
2023-03-29T02:58:33.854Z,0.52
2023-03-29T02:59:33.853Z,0.51
2023-03-29T03:00:33.899Z,0.51
2023-03-29T03:01:33.953Z,0.52
2023-03-29T03:02:34.051Z,0.51
2023-03-29T03:03:34.141Z,0.52
2023-03-29T03:04:33.984Z,0.51
2023-03-29T03:05:33.997Z,0.51
2023-03-29T03:06:34.034Z,0.51
2023-03-29T03:07:34.066Z,0.51
2023-03-29T03:08:34.095Z,0.51
2023-03-29T03:09:34.136Z,0.50
2023-03-29T03:10:34.124Z,0.51
2023-03-29T03:11:34.155Z,0.51
2023-03-29T03:12:34.204Z,0.51
2023-03-29T03:13:34.227Z,0.51
2023-03-29T03:14:34.266Z,0.52
2023-03-29T03:15:34.264Z,0.51
2023-03-29T03:16:34.391Z,0.50
2023-03-29T03:17:34.364Z,0.50
2023-03-29T03:18:34.357Z,0.51
2023-03-29T03:19:34.355Z,0.51
2023-03-29T03:20:34.410Z,0.50
2023-03-29T03:21:34.429Z,0.51
2023-03-29T03:22:34.469Z,0.51
2023-03-29T03:23:34.511Z,0.51
2023-03-29T03:24:34.537Z,0.51
2023-03-29T03:25:34.595Z,0.52
2023-03-29T03:26:34.592Z,0.52
2023-03-29T03:27:34.641Z,0.51
2023-03-29T03:28:34.667Z,0.51
2023-03-29T03:29:34.689Z,0.51
2023-03-29T03:30:34.766Z,0.51
2023-03-29T03:31:34.799Z,0.51
2023-03-29T03:32:34.781Z,0.51
2023-03-29T03:33:34.819Z,0.51
2023-03-29T03:34:34.789Z,0.51
2023-03-29T03:35:34.876Z,0.51
2023-03-29T03:36:34.875Z,0.51
2023-03-29T03:37:34.889Z,0.51
2023-03-29T03:38:34.932Z,0.51
2023-03-29T03:39:34.961Z,0.51
2023-03-29T03:40:35.001Z,0.51
2023-03-29T03:41:35.001Z,0.50
2023-03-29T03:42:35.040Z,0.51
2023-03-29T03:43:35.073Z,0.50
2023-03-29T03:44:35.082Z,0.51
2023-03-29T03:45:35.159Z,0.51
2023-03-29T03:46:35.168Z,0.51
2023-03-29T03:47:35.225Z,0.51
2023-03-29T03:48:35.201Z,0.52
2023-03-29T03:49:35.242Z,0.52
2023-03-29T03:50:35.303Z,0.51
2023-03-29T03:51:35.276Z,0.52
2023-03-29T03:52:35.350Z,0.52
2023-03-29T03:53:35.366Z,0.51
2023-03-29T03:54:35.418Z,0.51
2023-03-29T03:55:35.419Z,0.51
2023-03-29T03:56:35.461Z,0.52
2023-03-29T03:57:35.505Z,0.51
2023-03-29T03:58:35.552Z,0.51
2023-03-29T03:59:35.566Z,0.52
2023-03-29T04:00:35.563Z,0.51
2023-03-29T04:01:35.688Z,0.52
2023-03-29T04:02:35.699Z,0.51
2023-03-29T04:03:35.741Z,0.52
2023-03-29T04:04:35.725Z,0.52
2023-03-29T04:05:35.757Z,0.51
2023-03-29T04:06:35.775Z,0.51
2023-03-29T04:07:35.823Z,0.51
2023-03-29T04:08:35.823Z,0.51
2023-03-29T04:09:35.877Z,0.50
2023-03-29T04:10:35.896Z,0.51
2023-03-29T04:11:35.899Z,0.50
2023-03-29T04:12:35.951Z,0.51
2023-03-29T04:13:35.958Z,0.51
2023-03-29T04:14:36.001Z,0.51
2023-03-29T04:15:36.048Z,0.51
2023-03-29T04:16:36.039Z,0.51
2023-03-29T04:17:36.153Z,0.50
2023-03-29T04:18:36.264Z,0.51
2023-03-29T04:19:36.126Z,0.51
2023-03-29T04:20:36.176Z,0.50
2023-03-29T04:21:36.195Z,0.51
2023-03-29T04:22:36.216Z,0.51
2023-03-29T04:23:36.286Z,0.52
2023-03-29T04:24:36.269Z,0.52
2023-03-29T04:25:36.300Z,0.52
2023-03-29T04:26:36.378Z,0.52
2023-03-29T04:27:36.367Z,0.51
2023-03-29T04:28:36.396Z,0.51
2023-03-29T04:29:36.417Z,0.52
2023-03-29T04:30:36.483Z,0.52
2023-03-29T04:31:36.549Z,0.51
2023-03-29T04:32:36.562Z,0.51
2023-03-29T04:33:36.580Z,0.51
2023-03-29T04:34:36.556Z,0.52
2023-03-29T04:35:36.636Z,0.52
2023-03-29T04:36:36.643Z,0.52
2023-03-29T04:37:36.672Z,0.52
2023-03-29T04:38:36.720Z,0.51
2023-03-29T04:39:37.317Z,0.52
2023-03-29T04:40:36.783Z,0.52
2023-03-29T04:41:36.801Z,0.51
2023-03-29T04:42:36.809Z,0.52
2023-03-29T04:43:37.846Z,0.52
2023-03-29T04:44:36.918Z,0.53
2023-03-29T04:45:36.812Z,0.52
2023-03-29T04:46:36.902Z,0.52
2023-03-29T04:47:36.850Z,0.52
2023-03-29T04:48:36.804Z,0.51
2023-03-29T04:49:36.794Z,0.52
2023-03-29T04:50:36.786Z,0.51
2023-03-29T04:51:36.794Z,0.51
2023-03-29T04:52:36.788Z,0.53
2023-03-29T04:53:36.770Z,0.51
2023-03-29T04:54:36.769Z,0.52
2023-03-29T04:55:36.769Z,0.52
2023-03-29T04:56:36.775Z,0.51
2023-03-29T04:57:36.748Z,0.51
2023-03-29T04:58:36.765Z,0.51
2023-03-29T04:59:36.735Z,0.52
2023-03-29T05:00:43.736Z,0.52
2023-03-29T05:01:36.778Z,0.52
2023-03-29T05:02:36.803Z,0.52
2023-03-29T05:03:36.712Z,0.52
2023-03-29T05:04:36.817Z,0.52
2023-03-29T05:05:36.725Z,0.53
2023-03-29T05:06:36.713Z,0.52
2023-03-29T05:07:36.698Z,0.52
2023-03-29T05:08:36.682Z,0.52
2023-03-29T05:09:36.690Z,0.52
2023-03-29T05:10:36.659Z,0.52
2023-03-29T05:11:36.660Z,0.52
2023-03-29T05:12:36.672Z,0.52
2023-03-29T05:13:36.673Z,0.52
2023-03-29T05:14:36.640Z,0.51
2023-03-29T05:15:36.666Z,0.52
2023-03-29T05:17:55.670Z,0.50
2023-03-29T05:18:55.634Z,0.50
2023-03-29T05:19:55.675Z,0.50
2023-03-29T05:20:55.700Z,0.50
2023-03-29T05:21:55.774Z,0.50
2023-03-29T05:22:55.823Z,0.51
2023-03-29T05:23:55.886Z,0.50
2023-03-29T05:24:55.897Z,0.51
2023-03-29T05:25:55.959Z,0.50
2023-03-29T05:26:55.993Z,0.51
2023-03-29T05:27:56.024Z,0.50
2023-03-29T05:28:56.096Z,0.50
2023-03-29T05:29:56.126Z,0.50
2023-03-29T05:30:56.154Z,0.51
2023-03-29T05:31:56.257Z,0.51
2023-03-29T05:32:56.265Z,0.54
2023-03-29T05:33:56.310Z,0.58
2023-03-29T05:34:56.323Z,0.61
2023-03-29T05:35:56.399Z,0.62
2023-03-29T05:36:56.384Z,0.61
2023-03-29T05:37:56.497Z,0.62
2023-03-29T05:38:56.516Z,0.64
2023-03-29T05:40:05.617Z,0.65
2023-03-29T05:40:57.547Z,0.65
2023-03-29T05:41:56.568Z,0.64
2023-03-29T05:42:56.580Z,0.62
2023-03-29T05:43:56.720Z,0.59
2023-03-29T05:44:56.608Z,0.59
2023-03-29T05:46:03.637Z,0.58
2023-03-29T05:46:57.581Z,0.58
2023-03-29T05:47:56.610Z,0.59
2023-03-29T05:48:56.771Z,0.59
2023-03-29T05:49:56.523Z,0.61
2023-03-29T05:50:56.517Z,0.63
2023-03-29T05:51:56.480Z,0.64
2023-03-29T05:52:56.516Z,0.65
2023-03-29T05:53:56.467Z,0.67
2023-03-29T05:54:56.464Z,0.67
2023-03-29T05:55:56.469Z,0.68
2023-03-29T05:56:56.509Z,0.70
2023-03-29T05:57:56.473Z,0.71
2023-03-29T05:58:56.440Z,0.72
2023-03-29T05:59:56.442Z,0.74
2023-03-29T06:00:56.446Z,0.75
2023-03-29T06:01:56.511Z,0.76
2023-03-29T06:03:01.316Z,0.77
2023-03-29T06:03:57.542Z,0.77
2023-03-29T06:04:56.758Z,0.78
2023-03-29T06:05:56.420Z,0.81
2023-03-29T06:06:56.372Z,0.85
2023-03-29T06:07:56.606Z,0.91
2023-03-29T06:08:56.348Z,0.93
2023-03-29T06:09:56.410Z,0.99
2023-03-29T06:10:56.333Z,1.02
2023-03-29T06:11:56.443Z,1.03
2023-03-29T06:12:56.381Z,1.04
2023-03-29T06:13:56.321Z,1.11
2023-03-29T06:14:56.298Z,1.12
2023-03-29T06:15:56.358Z,1.15
2023-03-29T06:16:56.330Z,1.19
2023-03-29T06:17:56.429Z,1.23
2023-03-29T06:18:56.299Z,1.26
2023-03-29T06:19:56.383Z,1.28
2023-03-29T06:20:56.320Z,1.29
2023-03-29T06:21:56.282Z,1.31
2023-03-29T06:22:56.298Z,1.34
2023-03-29T06:23:56.317Z,1.35
2023-03-29T06:24:56.771Z,1.40
2023-03-29T06:25:56.318Z,1.41
2023-03-29T06:26:56.266Z,1.44
2023-03-29T06:27:56.263Z,1.47
2023-03-29T06:28:56.267Z,1.50
2023-03-29T06:29:56.758Z,1.51
2023-03-29T06:30:56.466Z,1.55
2023-03-29T06:31:56.228Z,1.53
2023-03-29T06:32:56.293Z,1.60
2023-03-29T06:33:56.220Z,1.68
2023-03-29T06:34:56.200Z,1.95
2023-03-29T06:35:56.231Z,1.66
2023-03-29T06:36:56.197Z,1.65
2023-03-29T06:37:56.194Z,1.47
2023-03-29T06:38:56.212Z,1.47
2023-03-29T06:39:56.240Z,1.59
2023-03-29T06:40:56.158Z,1.63
2023-03-29T06:41:56.141Z,1.59
2023-03-29T06:42:56.181Z,1.60
2023-03-29T06:43:56.128Z,1.57
2023-03-29T06:44:56.307Z,1.62
2023-03-29T06:45:56.153Z,1.53
2023-03-29T06:46:56.173Z,1.48
2023-03-29T06:47:56.339Z,1.49
2023-03-29T06:48:56.215Z,1.47
2023-03-29T06:49:56.124Z,1.38
2023-03-29T06:50:56.111Z,1.40
2023-03-29T06:51:56.130Z,1.42
2023-03-29T06:52:56.127Z,1.39
2023-03-29T06:53:56.159Z,1.35
2023-03-29T06:54:56.162Z,1.35
2023-03-29T06:55:56.154Z,1.30
2023-03-29T06:56:56.193Z,1.28
2023-03-29T06:57:56.128Z,1.28
2023-03-29T06:58:56.145Z,1.28
2023-03-29T06:59:56.148Z,1.28
2023-03-29T07:00:56.132Z,1.26
2023-03-29T07:01:56.174Z,1.23
2023-03-29T07:02:56.242Z,1.21
2023-03-29T07:03:56.191Z,1.23
2023-03-29T07:04:56.246Z,1.16
2023-03-29T07:05:56.224Z,1.17
2023-03-29T07:06:56.206Z,1.16
2023-03-29T07:07:56.239Z,1.17
2023-03-29T07:08:56.237Z,1.18
2023-03-29T07:09:56.232Z,1.16
2023-03-29T07:10:56.258Z,1.15
2023-03-29T07:11:56.265Z,1.14
2023-03-29T07:12:56.338Z,1.14
2023-03-29T07:13:56.336Z,1.10
2023-03-29T07:14:56.754Z,1.08
2023-03-29T07:15:56.504Z,1.05
2023-03-29T07:16:56.398Z,1.00
2023-03-29T07:17:56.420Z,0.98
2023-03-29T07:18:56.471Z,0.97
2023-03-29T07:19:56.460Z,0.98
2023-03-29T07:20:56.500Z,0.95
2023-03-29T07:21:56.500Z,0.95
2023-03-29T07:22:56.541Z,0.94
2023-03-29T07:23:56.560Z,0.95
2023-03-29T07:24:56.561Z,0.94
2023-03-29T07:25:56.596Z,0.94
2023-03-29T07:27:04.243Z,0.92
2023-03-29T07:27:57.598Z,0.92
2023-03-29T07:28:56.571Z,0.92
2023-03-29T07:29:56.592Z,0.89
2023-03-29T07:30:56.590Z,0.91
2023-03-29T07:31:56.556Z,0.91
2023-03-29T07:32:56.628Z,0.92
2023-03-29T07:33:56.651Z,0.89
2023-03-29T07:34:56.572Z,0.88
2023-03-29T07:35:56.540Z,0.86
2023-03-29T07:36:56.546Z,0.87
2023-03-29T07:37:56.528Z,0.83
2023-03-29T07:38:56.538Z,0.88
2023-03-29T07:39:56.517Z,0.88
2023-03-29T07:40:56.498Z,0.86
2023-03-29T07:41:56.538Z,0.84
2023-03-29T07:42:56.537Z,0.88
2023-03-29T07:43:56.468Z,0.91
2023-03-29T07:44:56.762Z,0.89
2023-03-29T07:45:56.489Z,0.92
2023-03-29T07:46:56.482Z,0.92
2023-03-29T07:47:56.608Z,0.91
2023-03-29T07:48:56.533Z,0.93
2023-03-29T07:49:56.527Z,0.97
2023-03-29T07:50:56.517Z,0.99
2023-03-29T07:51:56.542Z,1.01
2023-03-29T07:52:56.564Z,1.06
2023-03-29T07:53:56.613Z,1.08
2023-03-29T07:54:56.608Z,1.09
2023-03-29T07:55:56.575Z,1.09
2023-03-29T07:56:56.668Z,1.08
2023-03-29T07:57:56.627Z,1.08
2023-03-29T07:58:56.631Z,1.10
2023-03-29T07:59:56.609Z,1.10
2023-03-29T08:00:56.641Z,1.11
2023-03-29T08:01:56.593Z,1.08
2023-03-29T08:02:56.735Z,1.08
2023-03-29T08:03:56.793Z,1.11
2023-03-29T08:04:56.705Z,1.11
2023-03-29T08:05:56.640Z,1.12
2023-03-29T08:06:56.948Z,1.13
2023-03-29T08:07:56.632Z,1.15
2023-03-29T08:08:56.655Z,1.15
2023-03-29T08:09:56.624Z,1.17
2023-03-29T08:10:56.652Z,1.20
2023-03-29T08:11:56.657Z,1.23
2023-03-29T08:12:56.621Z,1.21
2023-03-29T08:13:56.630Z,1.20
2023-03-29T08:14:56.658Z,1.23
2023-03-29T08:15:56.625Z,1.24
2023-03-29T08:16:56.716Z,1.25
2023-03-29T08:17:56.739Z,1.28
2023-03-29T08:18:56.756Z,1.25
2023-03-29T08:19:56.925Z,1.27
2023-03-29T08:20:56.651Z,1.23
2023-03-29T08:21:56.580Z,1.25
2023-03-29T08:22:56.824Z,1.31
2023-03-29T08:23:56.596Z,1.29
2023-03-29T08:24:56.609Z,1.29
2023-03-29T08:25:56.613Z,1.31
2023-03-29T08:26:57.268Z,1.32
2023-03-29T08:27:57.627Z,1.32
2023-03-29T08:28:56.717Z,1.34
2023-03-29T08:29:56.643Z,1.35
2023-03-29T08:30:56.677Z,1.38
2023-03-29T08:31:56.629Z,1.45
2023-03-29T08:32:56.668Z,1.45
2023-03-29T08:33:56.649Z,1.59
2023-03-29T08:34:56.795Z,1.91
2023-03-29T08:35:56.796Z,1.76
2023-03-29T08:36:56.616Z,1.90
2023-03-29T08:37:56.619Z,1.82
2023-03-29T08:38:56.623Z,1.88
2023-03-29T08:39:56.624Z,1.79
2023-03-29T08:40:56.623Z,1.79
2023-03-29T08:41:56.621Z,1.79
2023-03-29T08:42:56.597Z,1.74
2023-03-29T08:43:56.631Z,1.77
2023-03-29T08:44:56.642Z,1.73
2023-03-29T08:45:56.642Z,1.76
2023-03-29T08:46:56.640Z,1.76
2023-03-29T08:47:56.661Z,1.75
2023-03-29T08:48:56.669Z,1.72
2023-03-29T08:49:56.678Z,1.72
2023-03-29T08:50:56.613Z,1.77
2023-03-29T08:51:56.614Z,1.78
2023-03-29T08:52:56.634Z,1.82
2023-03-29T08:53:56.598Z,1.80
2023-03-29T08:54:56.702Z,1.93
2023-03-29T08:55:56.610Z,1.87
2023-03-29T08:56:56.681Z,1.88
2023-03-29T08:57:57.203Z,1.87
2023-03-29T08:58:56.633Z,1.92
2023-03-29T08:59:56.597Z,2.06
2023-03-29T09:00:56.611Z,2.10
2023-03-29T09:01:56.634Z,2.28
2023-03-29T09:02:56.722Z,2.29
2023-03-29T09:03:57.357Z,2.24
2023-03-29T09:04:56.628Z,2.24
2023-03-29T09:05:56.686Z,2.19
2023-03-29T09:06:56.662Z,2.34
2023-03-29T09:07:56.693Z,2.38
2023-03-29T09:08:56.730Z,2.40
2023-03-29T09:09:56.762Z,2.45
2023-03-29T09:10:56.766Z,2.45
2023-03-29T09:11:56.755Z,2.42
2023-03-29T09:12:56.936Z,2.46
2023-03-29T09:13:56.843Z,2.51
2023-03-29T09:14:57.294Z,2.41
2023-03-29T09:15:56.947Z,2.46
2023-03-29T09:16:56.856Z,2.49
2023-03-29T09:17:56.929Z,2.43
2023-03-29T09:18:56.893Z,2.44
2023-03-29T09:19:56.934Z,2.41
2023-03-29T09:20:56.963Z,2.34
2023-03-29T09:21:56.972Z,2.38
2023-03-29T09:22:56.900Z,2.40
2023-03-29T09:23:56.900Z,2.38
2023-03-29T09:24:56.881Z,2.44
2023-03-29T09:25:56.923Z,2.42
2023-03-29T09:26:56.889Z,2.46
2023-03-29T09:27:56.876Z,2.40
2023-03-29T09:28:56.870Z,2.41
2023-03-29T09:29:56.872Z,2.36
2023-03-29T09:30:57.291Z,2.33
2023-03-29T09:31:56.983Z,2.38
2023-03-29T09:32:56.939Z,2.36
2023-03-29T09:33:56.871Z,2.29
2023-03-29T09:34:56.904Z,2.24
2023-03-29T09:35:56.989Z,2.27
2023-03-29T09:36:56.907Z,2.26
2023-03-29T09:37:56.905Z,2.25
2023-03-29T09:38:56.920Z,2.22
2023-03-29T09:39:56.906Z,2.22
2023-03-29T09:40:57.378Z,2.17
2023-03-29T09:41:56.926Z,2.20
2023-03-29T09:42:56.932Z,2.14
2023-03-29T09:43:56.966Z,2.14
2023-03-29T09:44:56.943Z,2.11
2023-03-29T09:45:56.976Z,2.09
2023-03-29T09:46:56.963Z,2.08
2023-03-29T09:47:57.095Z,2.01
2023-03-29T09:48:56.967Z,2.05
2023-03-29T09:49:56.995Z,1.99
2023-03-29T09:50:56.987Z,1.99
2023-03-29T09:51:57.028Z,1.99
2023-03-29T09:52:57.025Z,1.93
2023-03-29T09:53:57.057Z,2.01
2023-03-29T09:54:57.044Z,1.96
2023-03-29T09:55:57.079Z,1.92
2023-03-29T09:56:57.190Z,1.95
2023-03-29T09:57:57.124Z,1.90
2023-03-29T09:58:57.128Z,1.91
2023-03-29T09:59:57.106Z,1.91
2023-03-29T10:00:57.406Z,1.92
2023-03-29T10:01:57.165Z,1.86
2023-03-29T10:02:57.243Z,1.87
2023-03-29T10:03:57.223Z,1.85
2023-03-29T10:04:57.934Z,1.82
2023-03-29T10:05:57.378Z,1.79
2023-03-29T10:06:57.193Z,1.76
2023-03-29T10:07:57.224Z,1.80
2023-03-29T10:08:57.221Z,1.78
2023-03-29T10:09:57.230Z,1.67
2023-03-29T10:10:57.227Z,1.70
2023-03-29T10:11:57.227Z,1.61
2023-03-29T10:12:57.277Z,1.66
2023-03-29T10:13:57.281Z,1.65
2023-03-29T10:14:57.314Z,1.67
2023-03-29T10:15:57.304Z,1.60
2023-03-29T10:16:57.394Z,1.64
2023-03-29T10:17:57.398Z,2.09
2023-03-29T10:18:57.335Z,2.42
2023-03-29T10:19:57.368Z,1.95
2023-03-29T10:20:57.448Z,1.76
2023-03-29T10:21:57.410Z,1.68
2023-03-29T10:22:57.419Z,1.84
2023-03-29T10:23:57.425Z,1.96
2023-03-29T10:24:57.428Z,2.00
2023-03-29T10:25:57.560Z,1.98
2023-03-29T10:26:57.445Z,1.94
2023-03-29T10:27:57.460Z,1.88
2023-03-29T10:28:57.588Z,1.85
2023-03-29T10:29:57.515Z,1.83
2023-03-29T10:30:57.912Z,1.87
2023-03-29T10:31:57.537Z,1.85
2023-03-29T10:32:57.581Z,1.85
2023-03-29T10:33:57.537Z,1.85
2023-03-29T10:34:57.616Z,1.85
2023-03-29T10:35:57.895Z,1.83
2023-03-29T10:36:57.561Z,1.78
2023-03-29T10:37:57.562Z,1.82
2023-03-29T10:38:57.565Z,1.79
2023-03-29T10:39:57.572Z,1.81
2023-03-29T10:40:57.595Z,1.81
2023-03-29T10:41:57.598Z,1.82
2023-03-29T10:42:57.589Z,1.79
2023-03-29T10:43:57.592Z,1.79
2023-03-29T10:44:57.645Z,1.80
2023-03-29T10:45:57.638Z,1.74
2023-03-29T10:46:57.643Z,1.73
2023-03-29T10:47:57.714Z,1.76
2023-03-29T10:48:57.631Z,1.75
2023-03-29T10:49:57.660Z,1.71
2023-03-29T10:50:57.856Z,1.69
2023-03-29T10:51:57.668Z,1.71
2023-03-29T10:52:57.666Z,1.68
2023-03-29T10:53:57.692Z,1.69
2023-03-29T10:54:57.671Z,1.68
2023-03-29T10:55:57.676Z,1.65
2023-03-29T10:56:57.812Z,1.64
2023-03-29T10:57:57.693Z,1.62
2023-03-29T10:58:57.711Z,1.65
2023-03-29T10:59:57.672Z,1.62
2023-03-29T11:00:57.686Z,1.60
2023-03-29T11:01:57.746Z,1.59
2023-03-29T11:02:57.740Z,1.56
2023-03-29T11:03:57.748Z,1.58
2023-03-29T11:04:57.700Z,1.56
2023-03-29T11:05:57.724Z,1.57
2023-03-29T11:06:57.718Z,1.56
2023-03-29T11:07:57.739Z,1.54
2023-03-29T11:08:57.702Z,1.52
2023-03-29T11:09:57.710Z,1.50
2023-03-29T11:10:57.759Z,1.51
2023-03-29T11:12:08.535Z,1.50
2023-03-29T11:12:58.725Z,1.50
2023-03-29T11:13:59.885Z,1.50
2023-03-29T11:14:57.708Z,1.49
2023-03-29T11:15:57.729Z,1.50
2023-03-29T11:16:57.704Z,1.44
2023-03-29T11:17:57.733Z,1.46
2023-03-29T11:18:57.706Z,1.45
2023-03-29T11:19:57.700Z,1.48
2023-03-29T11:20:57.856Z,1.45
2023-03-29T11:21:57.680Z,1.43
2023-03-29T11:22:57.690Z,1.41
2023-03-29T11:23:57.726Z,1.41
2023-03-29T11:24:57.799Z,1.40
2023-03-29T11:25:57.904Z,1.36
2023-03-29T11:26:57.753Z,1.37
2023-03-29T11:27:57.730Z,1.29
2023-03-29T11:28:57.728Z,1.25
2023-03-29T11:29:57.743Z,1.27
2023-03-29T11:30:57.983Z,1.23
2023-03-29T11:31:57.827Z,1.26
2023-03-29T11:32:57.782Z,1.24
2023-03-29T11:33:57.745Z,1.29
2023-03-29T11:34:57.805Z,1.31
2023-03-29T11:35:57.852Z,1.32
2023-03-29T11:36:57.862Z,1.34
2023-03-29T11:37:57.773Z,1.29
2023-03-29T11:38:57.772Z,1.29
2023-03-29T11:39:57.744Z,1.31
2023-03-29T11:40:57.709Z,1.30
2023-03-29T11:41:57.757Z,1.33
2023-03-29T11:42:57.763Z,1.32
2023-03-29T11:43:57.759Z,1.31
2023-03-29T11:44:57.810Z,1.31
2023-03-29T11:45:57.755Z,1.31
2023-03-29T11:46:57.829Z,1.29
2023-03-29T11:47:57.790Z,1.29
2023-03-29T11:48:57.740Z,1.25
2023-03-29T11:49:57.755Z,1.26
2023-03-29T11:50:57.748Z,1.26
2023-03-29T11:51:57.764Z,1.26
2023-03-29T11:52:57.728Z,1.25
2023-03-29T11:53:57.720Z,1.23
2023-03-29T11:54:57.759Z,1.23
2023-03-29T11:55:57.762Z,1.22
2023-03-29T11:56:57.780Z,1.21
2023-03-29T11:57:57.744Z,1.23
2023-03-29T11:58:57.744Z,1.19
2023-03-29T11:59:57.710Z,1.19
2023-03-29T12:00:57.718Z,1.19
2023-03-29T12:01:57.712Z,1.21
2023-03-29T12:02:57.772Z,1.19
2023-03-29T12:03:57.740Z,1.20
2023-03-29T12:04:57.709Z,1.16
2023-03-29T12:05:57.718Z,1.18
2023-03-29T12:06:57.756Z,1.18
2023-03-29T12:07:57.665Z,1.16
2023-03-29T12:08:57.664Z,1.15
2023-03-29T12:09:57.740Z,1.14
2023-03-29T12:10:57.743Z,1.13
2023-03-29T12:11:57.755Z,1.12
2023-03-29T12:12:57.706Z,1.14
2023-03-29T12:13:57.731Z,1.15
2023-03-29T12:14:57.774Z,1.13
2023-03-29T12:15:57.761Z,1.13
2023-03-29T12:16:57.776Z,1.12
2023-03-29T12:17:57.778Z,1.09
2023-03-29T12:18:57.801Z,1.10
2023-03-29T12:19:57.846Z,1.10
2023-03-29T12:20:57.921Z,1.10
2023-03-29T12:21:57.909Z,1.10
2023-03-29T12:22:57.936Z,1.08
2023-03-29T12:23:57.988Z,1.12
2023-03-29T12:24:58.007Z,1.11
2023-03-29T12:25:58.123Z,1.10
2023-03-29T12:26:58.161Z,1.08
2023-03-29T12:27:58.175Z,1.06
2023-03-29T12:28:58.283Z,1.06
2023-03-29T12:29:58.311Z,1.05
2023-03-29T12:30:58.408Z,1.06
2023-03-29T12:31:58.455Z,1.05
2023-03-29T12:32:58.496Z,1.05
2023-03-29T12:33:58.524Z,1.05
2023-03-29T12:34:58.579Z,1.05
2023-03-29T12:35:58.693Z,1.04
2023-03-29T12:36:58.692Z,1.07
2023-03-29T12:37:58.764Z,1.05
2023-03-29T12:38:58.775Z,1.04
2023-03-29T12:39:58.828Z,1.04
2023-03-29T12:40:58.851Z,1.04
2023-03-29T12:41:58.930Z,1.03
2023-03-29T12:42:58.966Z,1.01
2023-03-29T12:43:59.004Z,1.02
2023-03-29T12:44:59.054Z,1.03
2023-03-29T12:45:59.155Z,1.04
2023-03-29T12:46:59.156Z,1.01
2023-03-29T12:47:59.335Z,1.03
2023-03-29T12:48:59.182Z,1.05
2023-03-29T12:49:59.246Z,1.02
2023-03-29T12:50:59.305Z,1.02
2023-03-29T12:51:59.304Z,1.03
2023-03-29T12:52:59.431Z,1.05
2023-03-29T12:53:59.377Z,1.01
2023-03-29T12:54:59.439Z,1.01
2023-03-29T12:55:59.486Z,1.02
2023-03-29T12:56:59.514Z,1.01
2023-03-29T12:57:59.576Z,1.02
2023-03-29T12:58:59.621Z,1.01
2023-03-29T12:59:59.644Z,1.02
2023-03-29T13:00:59.768Z,1.01
2023-03-29T13:02:00.150Z,1.01
2023-03-29T13:02:59.785Z,1.00
2023-03-29T13:03:59.851Z,1.06
2023-03-29T13:04:59.937Z,1.20
2023-03-29T13:06:00.169Z,1.17
2023-03-29T13:07:00.008Z,1.17
2023-03-29T13:08:00.109Z,1.27
2023-03-29T13:09:00.113Z,1.57
2023-03-29T13:10:00.195Z,1.59
2023-03-29T13:11:00.200Z,1.76
2023-03-29T13:12:00.266Z,2.00
2023-03-29T13:13:00.219Z,2.45
2023-03-29T13:14:00.257Z,2.83
2023-03-29T13:15:00.299Z,3.16
2023-03-29T13:16:00.530Z,3.54
2023-03-29T13:17:11.910Z,4.16
2023-03-29T13:18:01.409Z,4.17
2023-03-29T13:19:00.322Z,4.25
2023-03-29T13:20:00.341Z,4.43